WetterOnline ( https://www.wetteronline.de )

Wetter aktuell Baldham

Aktuelles Wetter: München/Stadt (535m)

6-stündlich | Neueste Meldungen
Ortszeit Temperatur Wetter
Fr, 24.01. 19:00 1.7° C leicht bewölkt
Fr, 24.01. 13:00 5.7° C wolkenlos
Fr, 24.01. 7:00 -3.1° C wolkenlos
Fr, 24.01. 1:00 -0.9° C bedeckt
Do, 23.01. 19:00 -0.9° C bewölkt
Do, 23.01. 13:00 -0.8° C bedeckt
Do, 23.01. 7:00 -3.5° C bedeckt
Do, 23.01. 1:00 -3.8° C Nebel
Ortszeit Temperatur Wetter
Fr, 24.01. 23:30 -0.2° C wolkig
Fr, 24.01. 23:20 -0.2° C wolkig
Fr, 24.01. 23:10 -0.5° C wolkig
Fr, 24.01. 23:00 -0.4° C wolkig
Fr, 24.01. 22:50 -0.4° C wolkig
Fr, 24.01. 22:40 -0.4° C wolkig
Fr, 24.01. 22:30 -0.1° C leicht bewölkt
Fr, 24.01. 22:00 0.5° C fast wolkenlos
Ortszeit Relative Feuchte Sichtweite
Fr, 24.01. 19:00 82% 19 km
Fr, 24.01. 13:00 55% 28 km
Fr, 24.01. 7:00 91% 7 km
Fr, 24.01. 1:00 88% 5.0 km
Do, 23.01. 19:00 86% 9 km
Do, 23.01. 13:00 82% 10 km
Do, 23.01. 7:00 90% 4.6 km
Do, 23.01. 1:00 93% 0.4 km
Ortszeit Relative Feuchte Sichtweite
Fr, 24.01. 23:30 96% 17 km
Fr, 24.01. 23:20 96% -
Fr, 24.01. 23:10 93% -
Fr, 24.01. 23:00 92% 12 km
Fr, 24.01. 22:50 92% -
Fr, 24.01. 22:40 92% -
Fr, 24.01. 22:30 90% 11 km
Fr, 24.01. 22:00 91% 13 km
Ortszeit Niederschlagsmenge Niederschlagsart
Fr, 24.01. 19:00 0.0 l/m2 in 12 Std. -
Fr, 24.01. 13:00 0.0 l/m2 in 6 Std. -
Fr, 24.01. 7:00 0.0 l/m2 in 12 Std. -
Fr, 24.01. 1:00 0.0 l/m2 in 6 Std. -
Do, 23.01. 19:00 0.0 l/m2 in 12 Std. -
Do, 23.01. 13:00 0.0 l/m2 in 6 Std. -
Do, 23.01. 7:00 0.1 l/m2 in 12 Std. -
Do, 23.01. 1:00 0.1 l/m2 in 6 Std. Schnee
Ortszeit Niederschlagsmenge Niederschlagsart
Fr, 24.01. 23:30 0.0 l/m2 in 1 Std. -
Fr, 24.01. 23:20 keine Meldung -
Fr, 24.01. 23:10 keine Meldung -
Fr, 24.01. 23:00 0.0 l/m2 in 1 Std. -
Fr, 24.01. 22:50 keine Meldung -
Fr, 24.01. 22:40 keine Meldung -
Fr, 24.01. 22:30 0.0 l/m2 in 1 Std. -
Fr, 24.01. 22:00 0.0 l/m2 in 1 Std. -
Ortszeit Stärke Spitze Richtung
km/h Bft. km/h Grad Sektor
Fr, 24.01. 19:00 6 1 11 150° SO
Fr, 24.01. 13:00 7 2 11 300° NW
Fr, 24.01. 7:00 4 1 18 230° SW
Fr, 24.01. 1:00 7 2 14 240° SW
Do, 23.01. 19:00 4 1 22 60° NO
Do, 23.01. 13:00 9 2 22 80° O
Do, 23.01. 7:00 9 2 19 100° O
Do, 23.01. 1:00 9 2 17 90° O
Ortszeit Stärke Spitze Richtung
km/h Bft. km/h Grad Sektor
Fr, 24.01. 23:30 6 1 7 290° W
Fr, 24.01. 23:20 6 1 - 290° W
Fr, 24.01. 23:10 6 1 - 300° NW
Fr, 24.01. 23:00 4 1 7 310° NW
Fr, 24.01. 22:50 4 1 - 310° NW
Fr, 24.01. 22:40 4 1 - 330° NW
Fr, 24.01. 22:30 2 1 7 210° SW
Fr, 24.01. 22:00 4 1 7 220° SW
Ortszeit Untergrenze Bedeckung Gattung
total tief tief mittel hoch
Fr, 24.01. 19:00 8100 m 3/8 0/8 - - -
Fr, 24.01. 13:00 - 0/8 0/8 - - -
Fr, 24.01. 7:00 - 0/8 0/8 - - -
Fr, 24.01. 1:00 180 m 8/8 8/8 - - -
Do, 23.01. 19:00 270 m 7/8 7/8 - - -
Do, 23.01. 13:00 210 m 8/8 8/8 - - -
Do, 23.01. 7:00 90 m 8/8 8/8 - - -
Do, 23.01. 1:00 30 m 8/8 8/8 - - -
Ortszeit Bedeckungsgrad in Achtel und Wolkenuntergrenze
Fr, 24.01. 23:30 8(7500m) 8(7800m)
Fr, 24.01. 23:20 8(7500m) 8(7800m)
Fr, 24.01. 23:10 8(7500m)
Fr, 24.01. 23:00 8(7800m)
Fr, 24.01. 22:50 8(7800m)
Fr, 24.01. 22:40 7(7800m)
Fr, 24.01. 22:30 6(7800m)
Fr, 24.01. 22:00 2(7500m)
Ortszeit Luftdruck NN (hPa) Tendenz (hPa in 3 Std.)
Fr, 24.01. 19:00 1025 + 0,1
Fr, 24.01. 13:00 1025 - 0,9
Fr, 24.01. 7:00 1028 - 0,4
Fr, 24.01. 1:00 1029 - 0,1
Do, 23.01. 19:00 1029 - 1,1
Do, 23.01. 13:00 1033 - 1,9
Do, 23.01. 7:00 1036 - 1,0
Do, 23.01. 1:00 1038 + 0,4
Ortszeit Luftdruck NN (hPa) Tendenz (hPa in 3 Std.)
Fr, 24.01. 23:30 1025 - 0,2
Fr, 24.01. 23:20 1025 keine Meldung
Fr, 24.01. 23:10 1025 keine Meldung
Fr, 24.01. 23:00 1025 - 0,2
Fr, 24.01. 22:50 1025 keine Meldung
Fr, 24.01. 22:40 1025 keine Meldung
Fr, 24.01. 22:30 1025 0,0
Fr, 24.01. 22:00 1025 + 0,3
Ortszeit Schneehöhe (cm)
Fr, 24.01. 19:00 0
Fr, 24.01. 13:00 0
Fr, 24.01. 7:00 0
Fr, 24.01. 1:00 0
Do, 23.01. 19:00 0
Do, 23.01. 13:00 0
Do, 23.01. 7:00 0
Do, 23.01. 1:00 0
Ortszeit Schneehöhe (cm)
Fr, 24.01. 23:30 0
Fr, 24.01. 23:20 0
Fr, 24.01. 23:10 0
Fr, 24.01. 23:00 0
Fr, 24.01. 22:50 0
Fr, 24.01. 22:40 0
Fr, 24.01. 22:30 0
Fr, 24.01. 22:00 0
Link zu dieser Seite / Seite empfehlen

Das Wetter in ...